createdAt,value
2022-09-11T00:02:03.854Z,8.45
2022-09-11T00:05:46.309Z,8.45
2022-09-11T00:09:28.025Z,8.85
2022-09-11T00:13:16.228Z,7.88
2022-09-11T00:16:57.977Z,5.18
2022-09-11T00:20:40.014Z,10.40
2022-09-11T00:24:21.714Z,5.38
2022-09-11T00:28:03.574Z,8.25
2022-09-11T00:31:45.388Z,7.65
2022-09-11T00:35:27.144Z,7.32
2022-09-11T00:39:11.313Z,4.85
2022-09-11T00:42:53.992Z,8.05
2022-09-11T00:46:54.696Z,5.50
2022-09-11T00:50:36.513Z,4.65
2022-09-11T00:54:21.568Z,8.60
2022-09-11T00:58:06.604Z,8.52
2022-09-11T01:01:48.583Z,8.90
2022-09-11T01:05:34.738Z,5.93
2022-09-11T01:09:17.275Z,5.88
2022-09-11T01:13:17.514Z,6.68
2022-09-11T01:17:09.019Z,8.45
2022-09-11T01:21:38.262Z,16.45
2022-09-11T01:25:43.659Z,14.32
2022-09-11T01:29:52.251Z,12.25
2022-09-11T01:33:33.948Z,6.57
2022-09-11T01:37:25.000Z,7.45
2022-09-11T01:41:20.510Z,7.88
2022-09-11T01:45:04.732Z,6.95
2022-09-11T01:48:49.381Z,4.80
2022-09-11T01:52:37.022Z,9.98
2022-09-11T01:56:26.884Z,6.45
2022-09-11T02:00:11.706Z,6.13
2022-09-11T02:04:37.736Z,9.00
2022-09-11T02:08:36.388Z,6.57
2022-09-11T02:12:22.547Z,6.80
2022-09-11T02:16:19.058Z,6.28
2022-09-11T02:20:01.154Z,8.60
2022-09-11T02:23:43.158Z,7.30
2022-09-11T02:27:27.434Z,8.27
2022-09-11T02:31:09.426Z,6.90
2022-09-11T02:34:53.574Z,8.52
2022-09-11T02:39:10.387Z,6.97
2022-09-11T02:43:22.696Z,9.52
2022-09-11T02:47:53.232Z,6.68
2022-09-11T02:51:39.875Z,7.03
2022-09-11T02:55:32.386Z,6.80
2022-09-11T02:59:25.657Z,4.25
2022-09-11T03:03:07.486Z,5.90
2022-09-11T03:06:50.282Z,7.53
2022-09-11T03:10:32.027Z,7.45
2022-09-11T03:14:14.477Z,5.22
2022-09-11T03:17:57.848Z,5.00
2022-09-11T03:21:39.943Z,9.90
2022-09-11T03:25:23.731Z,4.45
2022-09-11T03:29:05.590Z,6.43
2022-09-11T03:32:48.118Z,4.95
2022-09-11T03:36:29.869Z,4.55
2022-09-11T03:40:11.612Z,6.95
2022-09-11T03:43:53.440Z,3.40
2022-09-11T03:47:35.292Z,3.85
2022-09-11T03:51:17.302Z,3.28
2022-09-11T03:55:00.275Z,39.75
2022-09-11T03:58:43.231Z,3.90
2022-09-11T04:02:24.994Z,4.18
2022-09-11T04:06:07.461Z,3.60
2022-09-11T04:09:49.221Z,3.45
2022-09-11T04:13:35.727Z,4.93
2022-09-11T04:17:17.849Z,4.55
2022-09-11T04:20:59.553Z,3.80
2022-09-11T04:24:41.335Z,4.40
2022-09-11T04:28:23.686Z,5.18
2022-09-11T04:32:05.412Z,6.75
2022-09-11T04:35:47.915Z,5.10
2022-09-11T04:39:30.779Z,4.38
2022-09-11T04:43:12.642Z,6.25
2022-09-11T04:46:54.426Z,5.28
2022-09-11T04:50:36.130Z,8.93
2022-09-11T04:54:21.272Z,7.35
2022-09-11T04:58:03.631Z,27.13
2022-09-11T05:01:46.380Z,16.08
2022-09-11T05:05:28.190Z,17.23
2022-09-11T05:09:10.990Z,19.33
2022-09-11T05:12:52.674Z,32.78
2022-09-11T05:16:35.616Z,34.30
2022-09-11T05:20:17.551Z,32.55
2022-09-11T05:24:01.242Z,33.00
2022-09-11T05:27:43.087Z,23.98
2022-09-11T05:31:25.881Z,39.45
2022-09-11T05:35:08.052Z,55.00
2022-09-11T05:38:49.793Z,49.28
2022-09-11T05:42:31.506Z,30.10
2022-09-11T05:46:16.290Z,69.72
2022-09-11T05:49:58.005Z,31.67
2022-09-11T05:53:40.870Z,21.17
2022-09-11T05:57:22.603Z,30.73
2022-09-11T06:01:09.415Z,23.50
2022-09-11T06:04:51.639Z,25.38
2022-09-11T06:08:34.667Z,14.43
2022-09-11T06:12:19.423Z,25.80
2022-09-11T06:16:02.902Z,15.50
2022-09-11T06:19:44.623Z,23.00
2022-09-11T06:23:26.573Z,10.38
2022-09-11T06:27:08.290Z,9.75
2022-09-11T06:30:50.932Z,11.45
2022-09-11T06:34:33.004Z,9.40
2022-09-11T06:38:14.747Z,16.55
2022-09-11T06:41:56.522Z,13.93
2022-09-11T06:45:38.324Z,8.38
2022-09-11T06:49:20.110Z,7.75
2022-09-11T06:53:01.813Z,17.50
2022-09-11T06:56:45.163Z,15.13
2022-09-11T07:00:26.921Z,14.75
2022-09-11T07:04:10.353Z,32.53
2022-09-11T07:07:53.258Z,16.38
2022-09-11T07:11:35.849Z,20.00
2022-09-11T07:15:17.620Z,22.25
2022-09-11T07:18:59.331Z,17.75
2022-09-11T07:22:41.059Z,10.55
2022-09-11T07:26:24.874Z,11.95
2022-09-11T07:30:07.537Z,10.13
2022-09-11T07:33:50.975Z,10.07
2022-09-11T07:37:32.710Z,11.57
2022-09-11T07:41:16.722Z,10.68
2022-09-11T07:44:58.475Z,10.52
2022-09-11T07:48:40.923Z,11.65
2022-09-11T07:52:22.619Z,14.07
2022-09-11T07:56:10.104Z,13.98
2022-09-11T07:59:51.831Z,11.70
2022-09-11T08:03:35.181Z,11.70
2022-09-11T08:07:17.060Z,10.55
2022-09-11T08:11:25.505Z,12.90
2022-09-11T08:15:07.703Z,11.95
2022-09-11T08:18:49.456Z,11.10
2022-09-11T08:22:31.223Z,10.10
2022-09-11T08:26:14.037Z,11.48
2022-09-11T08:29:55.766Z,14.05
2022-09-11T08:33:38.017Z,10.75
2022-09-11T08:37:19.959Z,15.73
2022-09-11T08:41:23.547Z,14.05
2022-09-11T08:45:07.526Z,9.65
2022-09-11T08:49:25.469Z,13.48
2022-09-11T08:53:15.206Z,9.68
2022-09-11T08:57:17.138Z,14.68
2022-09-11T09:01:23.839Z,12.60
2022-09-11T09:05:27.277Z,9.13
2022-09-11T09:09:18.148Z,10.07
2022-09-11T09:13:08.903Z,6.60
2022-09-11T09:17:07.611Z,12.57
2022-09-11T09:21:00.925Z,7.45
2022-09-11T09:24:48.655Z,7.53
2022-09-11T09:28:34.846Z,11.13
2022-09-11T09:32:24.105Z,9.07
2022-09-11T09:36:16.761Z,7.00
2022-09-11T09:40:00.510Z,5.40
2022-09-11T09:43:57.299Z,11.25
2022-09-11T09:47:44.536Z,5.28
2022-09-11T09:51:26.351Z,7.93
2022-09-11T09:55:16.409Z,6.78
2022-09-11T09:59:22.809Z,6.20
2022-09-11T10:03:33.737Z,5.35
2022-09-11T10:07:22.233Z,10.00
2022-09-11T10:11:10.912Z,4.13
2022-09-11T10:14:58.288Z,6.07
2022-09-11T10:18:43.019Z,4.55
2022-09-11T10:22:31.399Z,4.00
2022-09-11T10:26:20.961Z,7.97
2022-09-11T10:30:04.174Z,5.78
2022-09-11T10:33:51.449Z,2.35
2022-09-11T10:37:34.264Z,4.05
2022-09-11T10:41:21.576Z,30.90
2022-09-11T10:45:12.526Z,9.07
2022-09-11T10:48:57.481Z,3.63
2022-09-11T10:53:00.418Z,6.28
2022-09-11T10:57:13.199Z,4.80
2022-09-11T11:00:54.942Z,3.25
2022-09-11T11:04:36.679Z,2.65
2022-09-11T11:08:46.458Z,6.72
2022-09-11T11:12:33.638Z,5.75
2022-09-11T11:16:34.263Z,2.30
2022-09-11T11:20:33.913Z,5.40
2022-09-11T11:24:25.904Z,2.97
2022-09-11T11:28:44.602Z,4.20
2022-09-11T11:32:44.816Z,2.40
2022-09-11T11:36:37.935Z,3.25
2022-09-11T11:40:47.031Z,1.92
2022-09-11T11:44:38.749Z,3.78
2022-09-11T11:48:29.258Z,4.53
2022-09-11T11:52:23.613Z,2.97
2022-09-11T11:56:14.641Z,5.57
2022-09-11T12:00:01.433Z,3.58
2022-09-11T12:03:52.651Z,5.23
2022-09-11T12:07:37.275Z,5.55
2022-09-11T12:11:30.657Z,4.65
2022-09-11T12:15:24.279Z,2.58
2022-09-11T12:19:25.628Z,3.75
2022-09-11T12:23:29.930Z,2.35
2022-09-11T12:27:31.875Z,2.15
2022-09-11T12:31:15.778Z,5.53
2022-09-11T12:35:02.440Z,3.25
2022-09-11T12:38:51.553Z,6.78
2022-09-11T12:42:33.222Z,1.85
2022-09-11T12:46:20.924Z,2.97
2022-09-11T12:50:19.078Z,3.88
2022-09-11T12:54:04.734Z,3.03
2022-09-11T12:57:46.513Z,3.92
2022-09-11T13:01:34.945Z,1.88
2022-09-11T13:05:34.635Z,2.42
2022-09-11T13:09:34.309Z,3.30
2022-09-11T13:13:46.768Z,2.95
2022-09-11T13:17:33.863Z,1.92
2022-09-11T13:21:20.344Z,2.83
2022-09-11T13:25:22.385Z,3.17
2022-09-11T13:29:04.083Z,1.33
2022-09-11T13:32:48.994Z,2.70
2022-09-11T13:36:31.894Z,2.83
2022-09-11T13:40:25.515Z,2.08
2022-09-11T13:44:13.442Z,3.58
2022-09-11T13:47:55.688Z,4.45
2022-09-11T13:51:43.053Z,2.17
2022-09-11T13:59:37.954Z,2.83
2022-09-11T14:03:29.256Z,4.20
2022-09-11T14:07:19.155Z,2.17
2022-09-11T14:11:15.317Z,3.42
2022-09-11T14:15:00.125Z,4.07
2022-09-11T14:19:06.466Z,2.05
2022-09-11T14:22:53.608Z,4.93
2022-09-11T14:26:35.311Z,1.63
2022-09-11T14:30:36.720Z,2.20
2022-09-11T14:34:19.601Z,2.58
2022-09-11T14:38:01.371Z,4.00
2022-09-11T14:41:44.944Z,3.17
2022-09-11T14:45:26.713Z,3.70
2022-09-11T14:49:09.418Z,2.58
2022-09-11T14:52:51.113Z,2.63
2022-09-11T14:56:33.252Z,2.88
2022-09-11T15:00:19.838Z,5.22
2022-09-11T15:04:02.703Z,4.80
2022-09-11T15:07:45.512Z,0.93
2022-09-11T15:11:27.287Z,2.53
2022-09-11T15:15:09.510Z,4.40
2022-09-11T15:18:51.487Z,1.40
2022-09-11T15:22:33.310Z,2.80
2022-09-11T15:26:15.048Z,3.25
2022-09-11T15:29:56.905Z,0.98
2022-09-11T15:33:38.692Z,2.72
2022-09-11T15:37:20.953Z,1.60
2022-09-11T15:41:02.844Z,3.00
2022-09-11T15:44:46.167Z,1.17
2022-09-11T15:48:30.988Z,1.10
2022-09-11T15:52:12.713Z,1.30
2022-09-11T15:56:09.786Z,3.28
2022-09-11T15:59:51.937Z,3.20
2022-09-11T16:03:33.688Z,1.95
2022-09-11T16:07:15.444Z,4.35
2022-09-11T16:10:57.194Z,0.80
2022-09-11T16:14:38.958Z,2.15
2022-09-11T16:18:20.692Z,3.88
2022-09-11T16:22:04.595Z,1.90
2022-09-11T16:25:46.309Z,2.75
2022-09-11T16:29:43.936Z,1.88
2022-09-11T16:33:31.941Z,3.70
2022-09-11T16:37:14.339Z,2.83
2022-09-11T16:41:02.226Z,2.40
2022-09-11T16:44:44.151Z,1.80
2022-09-11T16:48:26.522Z,3.03
2022-09-11T16:52:08.244Z,1.83
2022-09-11T16:55:50.234Z,3.58
2022-09-11T16:59:32.887Z,4.57
2022-09-11T17:03:15.588Z,3.72
2022-09-11T17:06:58.028Z,2.03
2022-09-11T17:10:46.105Z,3.05
2022-09-11T17:14:30.118Z,5.78
2022-09-11T17:18:12.051Z,4.47
2022-09-11T17:21:54.238Z,2.17
2022-09-11T17:25:39.273Z,2.70
2022-09-11T17:29:21.025Z,4.65
2022-09-11T17:33:03.189Z,4.90
2022-09-11T17:36:45.155Z,4.15
2022-09-11T17:40:27.306Z,3.78
2022-09-11T17:44:09.036Z,3.47
2022-09-11T17:47:51.224Z,3.90
2022-09-11T17:51:32.971Z,4.10
2022-09-11T17:55:14.720Z,5.93
2022-09-11T17:58:59.533Z,3.60
2022-09-11T18:02:41.375Z,4.75
2022-09-11T18:06:28.229Z,6.05
2022-09-11T18:10:10.146Z,9.07
2022-09-11T18:13:52.114Z,7.30
2022-09-11T18:17:34.489Z,6.25
2022-09-11T18:21:16.284Z,6.28
2022-09-11T18:24:59.884Z,10.63
2022-09-11T18:28:41.769Z,10.60
2022-09-11T18:32:23.567Z,19.67
2022-09-11T18:36:08.687Z,7.97
2022-09-11T18:39:50.448Z,7.45
2022-09-11T18:43:32.283Z,5.63
2022-09-11T18:47:14.077Z,4.85
2022-09-11T18:50:55.934Z,3.63
2022-09-11T18:54:39.047Z,6.95
2022-09-11T18:58:21.318Z,6.57
2022-09-11T19:02:03.248Z,5.70
2022-09-11T19:05:45.020Z,3.15
2022-09-11T19:09:29.167Z,6.30
2022-09-11T19:13:10.849Z,7.30
2022-09-11T19:16:53.145Z,4.35
2022-09-11T19:20:34.841Z,4.60
2022-09-11T19:24:16.952Z,4.70
2022-09-11T19:28:00.233Z,5.03
2022-09-11T19:31:42.325Z,4.97
2022-09-11T19:35:24.071Z,3.83
2022-09-11T19:39:06.710Z,5.43
2022-09-11T19:42:48.459Z,5.10
2022-09-11T19:46:32.200Z,6.30
2022-09-11T19:50:18.006Z,4.10
2022-09-11T19:54:02.832Z,3.22
2022-09-11T19:57:44.534Z,4.75
2022-09-11T20:01:29.218Z,6.68
2022-09-11T20:05:11.150Z,6.10
2022-09-11T20:09:13.512Z,7.05
2022-09-11T20:13:00.394Z,3.75
2022-09-11T20:16:42.384Z,6.00
2022-09-11T20:20:24.148Z,4.78
2022-09-11T20:24:09.256Z,3.83
2022-09-11T20:27:51.072Z,3.55
2022-09-11T20:31:39.041Z,5.47
2022-09-11T20:35:24.155Z,4.78
2022-09-11T20:39:05.955Z,7.00
2022-09-11T20:42:47.727Z,4.85
2022-09-11T20:46:29.465Z,6.35
2022-09-11T20:50:11.247Z,5.85
2022-09-11T20:53:53.048Z,7.88
2022-09-11T20:57:34.728Z,8.05
2022-09-11T21:01:21.216Z,7.88
2022-09-11T21:05:04.935Z,10.52
2022-09-11T21:08:50.937Z,8.50
2022-09-11T21:12:32.631Z,9.68
2022-09-11T21:16:15.878Z,13.05
2022-09-11T21:19:57.678Z,6.63
2022-09-11T21:23:39.502Z,19.23
2022-09-11T21:27:21.300Z,11.20
2022-09-11T21:31:04.618Z,7.88
2022-09-11T21:34:46.330Z,9.27
2022-09-11T21:38:29.504Z,9.52
2022-09-11T21:42:12.048Z,9.07
2022-09-11T21:45:54.318Z,9.85
2022-09-11T21:49:36.006Z,10.57
2022-09-11T21:53:18.071Z,10.20
2022-09-11T21:56:59.747Z,11.02
2022-09-11T22:00:43.098Z,11.40
2022-09-11T22:04:25.947Z,8.43
2022-09-11T22:08:07.984Z,8.63
2022-09-11T22:11:50.045Z,12.30
2022-09-11T22:15:31.763Z,8.75
2022-09-11T22:19:13.528Z,9.45
2022-09-11T22:22:58.745Z,9.13
2022-09-11T22:26:40.494Z,11.20
2022-09-11T22:30:23.589Z,11.88
2022-09-11T22:34:05.597Z,11.98
2022-09-11T22:37:47.305Z,9.60
2022-09-11T22:41:29.018Z,10.00
2022-09-11T22:45:11.647Z,8.98
2022-09-11T22:48:54.371Z,8.27
2022-09-11T22:52:37.363Z,8.63
2022-09-11T22:56:19.164Z,7.93
2022-09-11T23:00:01.109Z,11.52
2022-09-11T23:03:42.947Z,11.68
2022-09-11T23:07:24.696Z,11.85
2022-09-11T23:11:06.897Z,11.35
2022-09-11T23:14:48.923Z,17.73
2022-09-11T23:18:31.519Z,10.50
2022-09-11T23:22:13.218Z,13.52
2022-09-11T23:25:54.898Z,10.40
2022-09-11T23:29:36.613Z,15.70
2022-09-11T23:33:18.314Z,12.68
2022-09-11T23:37:00.017Z,10.73
2022-09-11T23:40:41.750Z,10.52
2022-09-11T23:44:23.481Z,11.25
2022-09-11T23:48:05.178Z,9.27
2022-09-11T23:51:49.994Z,12.05
2022-09-11T23:55:31.893Z,14.15
2022-09-11T23:59:13.660Z,9.30
